createdAt,value
2022-10-23T00:00:04.126Z,54.20
2022-10-23T00:01:04.040Z,50.20
2022-10-23T00:02:04.114Z,50.81
2022-10-23T00:03:04.091Z,53.19
2022-10-23T00:04:04.036Z,54.30
2022-10-23T00:05:04.137Z,54.00
2022-10-23T00:06:04.092Z,54.70
2022-10-23T00:07:04.036Z,54.93
2022-10-23T00:08:03.997Z,51.71
2022-10-23T00:09:04.042Z,50.93
2022-10-23T00:10:04.038Z,53.09
2022-10-23T00:11:04.083Z,51.17
2022-10-23T00:12:03.989Z,50.01
2022-10-23T00:13:04.062Z,48.69
2022-10-23T00:14:03.955Z,51.72
2022-10-23T00:15:03.976Z,52.68
2022-10-23T00:16:03.950Z,52.23
2022-10-23T00:17:03.858Z,54.51
2022-10-23T00:18:04.009Z,53.32
2022-10-23T00:19:03.966Z,52.56
2022-10-23T00:20:03.959Z,51.38
2022-10-23T00:21:03.935Z,48.42
2022-10-23T00:22:03.913Z,48.51
2022-10-23T00:23:03.897Z,52.07
2022-10-23T00:24:03.992Z,50.37
2022-10-23T00:25:03.954Z,50.82
2022-10-23T00:26:03.872Z,51.18
2022-10-23T00:27:03.908Z,52.70
2022-10-23T00:28:04.906Z,51.59
2022-10-23T00:29:03.859Z,50.76
2022-10-23T00:30:03.940Z,53.29
2022-10-23T00:31:03.842Z,48.98
2022-10-23T00:32:03.822Z,52.07
2022-10-23T00:33:03.798Z,53.61
2022-10-23T00:34:03.732Z,51.24
2022-10-23T00:35:03.743Z,50.32
2022-10-23T00:36:03.767Z,53.93
2022-10-23T00:37:03.723Z,50.01
2022-10-23T00:38:03.729Z,53.40
2022-10-23T00:39:03.744Z,51.98
2022-10-23T00:40:03.697Z,53.10
2022-10-23T00:41:03.874Z,48.79
2022-10-23T00:42:03.780Z,49.11
2022-10-23T00:43:03.818Z,50.69
2022-10-23T00:44:03.734Z,49.05
2022-10-23T00:45:03.780Z,48.84
2022-10-23T00:46:03.748Z,49.52
2022-10-23T00:47:03.708Z,48.12
2022-10-23T00:48:03.713Z,48.80
2022-10-23T00:49:03.825Z,48.17
2022-10-23T00:50:03.751Z,48.32
2022-10-23T00:51:03.727Z,50.03
2022-10-23T00:52:03.713Z,49.46
2022-10-23T00:53:03.713Z,52.18
2022-10-23T00:54:25.089Z,51.30
2022-10-23T00:55:05.571Z,52.29
2022-10-23T00:56:03.670Z,53.03
2022-10-23T00:57:03.565Z,51.98
2022-10-23T00:58:03.587Z,51.57
2022-10-23T00:59:03.558Z,51.15
2022-10-23T01:00:03.973Z,47.42
2022-10-23T01:01:03.572Z,49.52
2022-10-23T01:02:03.758Z,48.64
2022-10-23T01:03:03.649Z,49.34
2022-10-23T01:04:03.615Z,48.73
2022-10-23T01:05:04.210Z,47.21
2022-10-23T01:06:03.596Z,46.80
2022-10-23T01:07:03.591Z,49.22
2022-10-23T01:08:03.579Z,50.52
2022-10-23T01:09:03.574Z,49.62
2022-10-23T01:10:03.560Z,52.33
2022-10-23T01:11:03.612Z,48.51
2022-10-23T01:12:03.575Z,50.64
2022-10-23T01:13:03.528Z,47.04
2022-10-23T01:15:04.531Z,47.22
2022-10-23T01:16:03.633Z,48.30
2022-10-23T01:17:03.474Z,50.35
2022-10-23T01:18:03.454Z,48.67
2022-10-23T01:19:03.411Z,48.74
2022-10-23T01:20:03.390Z,50.83
2022-10-23T01:21:03.403Z,51.23
2022-10-23T01:22:03.454Z,52.01
2022-10-23T01:23:03.403Z,47.72
2022-10-23T01:24:03.423Z,47.38
2022-10-23T01:25:03.373Z,51.26
2022-10-23T01:26:03.427Z,50.72
2022-10-23T01:27:03.489Z,48.87
2022-10-23T01:28:03.428Z,50.84
2022-10-23T01:29:03.423Z,48.27
2022-10-23T01:30:03.386Z,47.19
2022-10-23T01:31:03.406Z,47.40
2022-10-23T01:32:03.403Z,48.68
2022-10-23T01:33:03.457Z,51.66
2022-10-23T01:34:03.364Z,49.43
2022-10-23T01:35:03.403Z,54.26
2022-10-23T01:36:03.364Z,50.87
2022-10-23T01:37:03.427Z,49.19
2022-10-23T01:38:03.328Z,48.36
2022-10-23T01:40:04.231Z,49.02
2022-10-23T01:41:03.230Z,50.70
2022-10-23T01:42:03.262Z,51.17
2022-10-23T01:43:03.294Z,50.13
2022-10-23T01:44:03.338Z,52.20
2022-10-23T01:45:03.287Z,50.89
2022-10-23T01:46:03.281Z,49.40
2022-10-23T01:47:03.269Z,54.54
2022-10-23T01:48:03.273Z,49.93
2022-10-23T01:49:03.297Z,50.03
2022-10-23T01:50:03.292Z,49.39
2022-10-23T01:51:03.245Z,49.69
2022-10-23T01:52:03.214Z,50.10
2022-10-23T01:53:03.255Z,51.50
2022-10-23T01:54:03.247Z,52.03
2022-10-23T01:55:03.250Z,48.63
2022-10-23T01:56:03.232Z,47.98
2022-10-23T01:57:03.215Z,48.82
2022-10-23T01:58:03.253Z,49.53
2022-10-23T01:59:03.183Z,49.79
2022-10-23T02:00:03.611Z,48.64
2022-10-23T02:01:03.158Z,50.48
2022-10-23T02:02:03.297Z,48.07
2022-10-23T02:03:03.164Z,47.45
2022-10-23T02:04:03.215Z,49.84
2022-10-23T02:05:03.151Z,48.14
2022-10-23T02:06:03.188Z,49.03
2022-10-23T02:07:04.140Z,47.70
2022-10-23T02:08:03.243Z,48.58
2022-10-23T02:09:03.115Z,51.53
2022-10-23T02:10:03.116Z,51.05
2022-10-23T02:11:03.150Z,49.05
2022-10-23T02:12:03.094Z,49.84
2022-10-23T02:13:03.088Z,50.28
2022-10-23T02:14:03.105Z,48.37
2022-10-23T02:15:02.990Z,48.05
2022-10-23T02:16:02.994Z,50.82
2022-10-23T02:17:03.008Z,52.13
2022-10-23T02:18:02.969Z,51.82
2022-10-23T02:19:03.107Z,52.44
2022-10-23T02:20:03.143Z,52.19
2022-10-23T02:21:03.085Z,52.45
2022-10-23T02:22:03.029Z,51.79
2022-10-23T02:23:03.066Z,51.09
2022-10-23T02:24:03.084Z,50.72
2022-10-23T02:25:02.978Z,49.44
2022-10-23T02:26:03.007Z,48.58
2022-10-23T02:27:02.977Z,48.43
2022-10-23T02:28:03.006Z,49.32
2022-10-23T02:29:03.021Z,48.15
2022-10-23T02:30:02.984Z,48.85
2022-10-23T02:31:02.953Z,47.67
2022-10-23T02:32:02.936Z,48.60
2022-10-23T02:33:02.992Z,48.71
2022-10-23T02:34:02.842Z,49.53
2022-10-23T02:35:02.837Z,48.64
2022-10-23T02:36:02.846Z,50.51
2022-10-23T02:37:02.934Z,50.75
2022-10-23T02:38:02.866Z,49.20
2022-10-23T02:39:02.842Z,48.14
2022-10-23T02:40:02.817Z,48.16
2022-10-23T02:41:02.832Z,49.76
2022-10-23T02:42:02.919Z,48.13
2022-10-23T02:43:02.864Z,46.27
2022-10-23T02:44:03.065Z,46.32
2022-10-23T02:45:02.847Z,48.32
2022-10-23T02:46:02.856Z,47.63
2022-10-23T02:47:02.923Z,51.56
2022-10-23T02:48:02.852Z,50.79
2022-10-23T02:49:02.835Z,51.04
2022-10-23T02:50:02.854Z,49.39
2022-10-23T02:51:02.783Z,48.96
2022-10-23T02:52:02.800Z,47.09
2022-10-23T02:53:02.795Z,49.39
2022-10-23T02:54:02.782Z,51.18
2022-10-23T02:55:02.784Z,50.01
2022-10-23T02:56:02.795Z,49.22
2022-10-23T02:57:02.783Z,48.99
2022-10-23T02:58:02.691Z,49.18
2022-10-23T02:59:02.673Z,47.42
2022-10-23T03:00:02.680Z,47.70
2022-10-23T03:01:03.070Z,50.85
2022-10-23T03:02:02.857Z,48.17
2022-10-23T03:03:02.647Z,47.15
2022-10-23T03:04:02.635Z,48.59
2022-10-23T03:05:02.645Z,50.57
2022-10-23T03:06:02.631Z,49.44
2022-10-23T03:07:02.620Z,51.44
2022-10-23T03:08:02.646Z,51.18
2022-10-23T03:09:02.698Z,50.02
2022-10-23T03:10:02.735Z,49.68
2022-10-23T03:11:02.717Z,51.26
2022-10-23T03:12:02.664Z,47.75
2022-10-23T03:13:02.764Z,48.50
2022-10-23T03:14:02.670Z,48.77
2022-10-23T03:15:02.634Z,48.79
2022-10-23T03:16:02.649Z,50.99
2022-10-23T03:17:02.697Z,49.40
2022-10-23T03:18:02.650Z,48.93
2022-10-23T03:19:02.673Z,49.72
2022-10-23T03:20:02.539Z,52.31
2022-10-23T03:21:02.517Z,49.54
2022-10-23T03:22:02.520Z,49.61
2022-10-23T03:23:02.492Z,47.57
2022-10-23T03:24:02.624Z,48.53
2022-10-23T03:25:02.571Z,49.55
2022-10-23T03:26:02.597Z,51.12
2022-10-23T03:27:02.593Z,51.62
2022-10-23T03:28:02.610Z,48.41
2022-10-23T03:29:02.546Z,48.32
2022-10-23T03:30:02.512Z,47.89
2022-10-23T03:31:02.516Z,48.41
2022-10-23T03:32:02.514Z,50.21
2022-10-23T03:33:02.595Z,51.24
2022-10-23T03:34:04.124Z,50.50
2022-10-23T03:35:02.504Z,48.47
2022-10-23T03:36:02.489Z,48.72
2022-10-23T03:37:02.477Z,50.44
2022-10-23T03:38:02.505Z,50.59
2022-10-23T03:39:02.472Z,49.32
2022-10-23T03:40:02.488Z,50.51
2022-10-23T03:41:02.502Z,50.52
2022-10-23T03:42:02.459Z,52.21
2022-10-23T03:43:02.349Z,52.11
2022-10-23T03:44:02.420Z,50.56
2022-10-23T03:45:02.389Z,51.32
2022-10-23T03:46:02.399Z,50.54
2022-10-23T03:47:02.359Z,51.15
2022-10-23T03:48:02.332Z,49.83
2022-10-23T03:49:02.376Z,50.42
2022-10-23T03:50:02.340Z,49.85
2022-10-23T03:51:02.445Z,50.36
2022-10-23T03:52:02.356Z,49.73
2022-10-23T03:53:02.350Z,49.68
2022-10-23T03:54:02.386Z,52.02
2022-10-23T03:55:02.432Z,51.31
2022-10-23T03:56:02.350Z,49.48
2022-10-23T03:57:02.348Z,50.56
2022-10-23T03:58:02.369Z,49.46
2022-10-23T03:59:02.325Z,48.17
2022-10-23T04:00:02.436Z,48.21
2022-10-23T04:01:02.389Z,53.03
2022-10-23T04:02:02.417Z,51.05
2022-10-23T04:03:02.322Z,50.21
2022-10-23T04:04:02.241Z,51.45
2022-10-23T04:05:02.420Z,49.78
2022-10-23T04:06:02.210Z,49.64
2022-10-23T04:07:02.247Z,48.80
2022-10-23T04:08:02.374Z,48.77
2022-10-23T04:09:02.318Z,48.65
2022-10-23T04:10:02.290Z,49.66
2022-10-23T04:11:02.288Z,51.43
2022-10-23T04:12:02.287Z,49.87
2022-10-23T04:13:02.231Z,50.08
2022-10-23T04:14:02.232Z,48.63
2022-10-23T04:15:02.217Z,52.33
2022-10-23T04:16:02.231Z,50.10
2022-10-23T04:17:02.262Z,50.90
2022-10-23T04:18:02.169Z,50.79
2022-10-23T04:19:02.153Z,48.57
2022-10-23T04:20:02.148Z,50.14
2022-10-23T04:21:02.127Z,50.14
2022-10-23T04:22:02.128Z,53.12
2022-10-23T04:23:02.146Z,50.92
2022-10-23T04:24:02.123Z,49.95
2022-10-23T04:25:02.114Z,48.79
2022-10-23T04:26:02.118Z,48.64
2022-10-23T04:27:02.153Z,51.27
2022-10-23T04:28:02.119Z,52.60
2022-10-23T04:29:02.117Z,50.69
2022-10-23T04:30:02.092Z,48.66
2022-10-23T04:31:02.154Z,50.56
2022-10-23T04:32:02.068Z,49.64
2022-10-23T04:33:02.158Z,52.57
2022-10-23T04:34:02.116Z,54.00
2022-10-23T04:35:02.137Z,49.69
2022-10-23T04:36:01.978Z,48.75
2022-10-23T04:37:01.969Z,49.55
2022-10-23T04:38:02.089Z,48.41
2022-10-23T04:39:01.938Z,50.30
2022-10-23T04:40:01.970Z,50.12
2022-10-23T04:41:01.957Z,52.58
2022-10-23T04:42:01.991Z,51.41
2022-10-23T04:43:02.015Z,50.54
2022-10-23T04:44:02.052Z,50.47
2022-10-23T04:45:01.985Z,52.39
2022-10-23T04:46:02.036Z,52.43
2022-10-23T04:47:01.993Z,49.13
2022-10-23T04:48:01.975Z,47.80
2022-10-23T04:49:02.092Z,50.03
2022-10-23T04:50:01.949Z,49.77
2022-10-23T04:51:02.037Z,52.29
2022-10-23T04:52:01.846Z,48.68
2022-10-23T04:53:01.832Z,50.56
2022-10-23T04:54:01.960Z,49.19
2022-10-23T04:55:01.859Z,50.94
2022-10-23T04:56:01.848Z,50.96
2022-10-23T04:57:01.828Z,49.01
2022-10-23T04:58:01.800Z,49.89
2022-10-23T04:59:01.818Z,48.75
2022-10-23T05:00:01.815Z,53.02
2022-10-23T05:01:01.965Z,49.20
2022-10-23T05:02:01.863Z,47.57
2022-10-23T05:03:01.821Z,48.10
2022-10-23T05:04:01.843Z,51.49
2022-10-23T05:05:01.763Z,49.75
2022-10-23T05:06:01.901Z,48.40
2022-10-23T05:07:01.836Z,50.48
2022-10-23T05:08:01.835Z,49.26
2022-10-23T05:09:01.782Z,50.06
2022-10-23T05:10:16.519Z,48.53
2022-10-23T05:11:01.835Z,51.55
2022-10-23T05:12:01.786Z,48.89
2022-10-23T05:13:01.853Z,51.42
2022-10-23T05:14:01.780Z,51.91
2022-10-23T05:15:01.698Z,53.18
2022-10-23T05:16:01.667Z,49.95
2022-10-23T05:17:01.690Z,51.91
2022-10-23T05:18:01.693Z,47.68
2022-10-23T05:19:01.667Z,47.78
2022-10-23T05:20:01.639Z,50.06
2022-10-23T05:21:01.657Z,52.16
2022-10-23T05:22:01.774Z,50.97
2022-10-23T05:23:01.708Z,51.92
2022-10-23T05:24:01.688Z,48.23
2022-10-23T05:25:01.678Z,49.24
2022-10-23T05:26:01.678Z,52.14
2022-10-23T05:27:01.670Z,50.42
2022-10-23T05:28:01.697Z,51.22
2022-10-23T05:29:01.665Z,53.76
2022-10-23T05:30:01.659Z,51.93
2022-10-23T05:31:01.656Z,52.31
2022-10-23T05:32:01.624Z,50.64
2022-10-23T05:33:01.582Z,52.23
2022-10-23T05:34:01.575Z,52.10
2022-10-23T05:35:02.511Z,53.74
2022-10-23T05:36:01.531Z,49.30
2022-10-23T05:37:01.606Z,49.41
2022-10-23T05:38:01.538Z,50.80
2022-10-23T05:39:01.621Z,51.13
2022-10-23T05:40:01.567Z,52.37
2022-10-23T05:41:02.601Z,53.61
2022-10-23T05:42:01.561Z,50.79
2022-10-23T05:43:01.541Z,52.14
2022-10-23T05:44:01.618Z,50.89
2022-10-23T05:45:01.564Z,49.73
2022-10-23T05:46:01.538Z,55.36
2022-10-23T05:47:01.527Z,51.17
2022-10-23T05:48:16.838Z,49.39
2022-10-23T05:49:02.505Z,52.59
2022-10-23T05:50:01.549Z,49.50
2022-10-23T05:51:01.491Z,50.23
2022-10-23T05:52:01.490Z,50.13
2022-10-23T05:53:01.489Z,52.83
2022-10-23T05:54:01.489Z,54.23
2022-10-23T05:55:01.530Z,56.06
2022-10-23T05:56:01.450Z,53.20
2022-10-23T05:57:01.401Z,51.19
2022-10-23T05:58:01.373Z,54.30
2022-10-23T05:59:01.492Z,58.78
2022-10-23T06:00:01.414Z,53.69
2022-10-23T06:01:01.387Z,51.73
2022-10-23T06:02:01.437Z,49.47
2022-10-23T06:03:01.327Z,52.39
2022-10-23T06:04:01.298Z,51.50
2022-10-23T06:05:01.443Z,49.99
2022-10-23T06:06:01.364Z,51.98
2022-10-23T06:07:01.378Z,58.38
2022-10-23T06:08:01.388Z,57.21
2022-10-23T06:09:01.370Z,56.85
2022-10-23T06:10:01.376Z,58.00
2022-10-23T06:11:01.805Z,57.55
2022-10-23T06:12:01.319Z,58.39
2022-10-23T06:13:01.369Z,60.68
2022-10-23T06:14:01.426Z,57.24
2022-10-23T06:15:01.311Z,56.86
2022-10-23T06:16:01.378Z,59.86
2022-10-23T06:17:01.302Z,58.57
2022-10-23T06:18:01.371Z,59.26
2022-10-23T06:19:01.202Z,59.18
2022-10-23T06:20:02.229Z,55.60
2022-10-23T06:21:01.210Z,56.81
2022-10-23T06:22:01.260Z,56.36
2022-10-23T06:23:01.225Z,57.98
2022-10-23T06:24:14.720Z,55.63
2022-10-23T06:25:01.152Z,57.11
2022-10-23T06:26:01.199Z,56.53
2022-10-23T06:27:01.200Z,57.45
2022-10-23T06:28:01.235Z,58.64
2022-10-23T06:29:01.210Z,58.01
2022-10-23T06:30:01.375Z,57.55
2022-10-23T06:31:01.239Z,57.46
2022-10-23T06:32:01.283Z,55.41
2022-10-23T06:33:03.360Z,56.85
2022-10-23T06:34:02.283Z,53.68
2022-10-23T06:35:01.193Z,53.63
2022-10-23T06:36:01.225Z,55.65
2022-10-23T06:37:02.194Z,54.96
2022-10-23T06:38:02.202Z,54.43
2022-10-23T06:39:01.173Z,54.74
2022-10-23T06:40:01.200Z,50.34
2022-10-23T06:41:01.214Z,50.72
2022-10-23T06:42:01.077Z,51.78
2022-10-23T06:43:01.069Z,49.99
2022-10-23T06:44:01.099Z,52.19
2022-10-23T06:45:04.786Z,50.03
2022-10-23T06:46:03.108Z,53.36
2022-10-23T06:47:01.049Z,51.17
2022-10-23T06:48:01.145Z,52.62
2022-10-23T06:49:01.088Z,54.28
2022-10-23T06:50:01.085Z,53.65
2022-10-23T06:51:01.070Z,54.34
2022-10-23T06:52:01.063Z,54.30
2022-10-23T06:53:01.086Z,53.68
2022-10-23T06:54:01.096Z,53.28
2022-10-23T06:55:01.113Z,54.03
2022-10-23T06:56:01.042Z,53.43
2022-10-23T06:57:01.071Z,53.74
2022-10-23T06:58:01.017Z,54.39
2022-10-23T06:59:01.039Z,55.09
2022-10-23T07:00:01.001Z,55.33
2022-10-23T07:01:01.121Z,54.55
2022-10-23T07:02:00.927Z,52.11
2022-10-23T07:03:00.908Z,59.29
2022-10-23T07:04:00.947Z,54.65
2022-10-23T07:05:00.942Z,52.87
2022-10-23T07:06:00.885Z,52.83
2022-10-23T07:07:00.871Z,52.45
2022-10-23T07:08:00.893Z,54.48
2022-10-23T07:09:00.868Z,51.16
2022-10-23T07:10:01.017Z,55.24
2022-10-23T07:11:00.923Z,55.53
2022-10-23T07:12:00.958Z,55.69
2022-10-23T07:13:01.195Z,55.61
2022-10-23T07:14:00.893Z,54.38
2022-10-23T07:15:00.890Z,54.30
2022-10-23T07:16:01.045Z,55.24
2022-10-23T07:17:00.876Z,52.54
2022-10-23T07:18:00.935Z,54.35
2022-10-23T07:19:00.907Z,54.39
2022-10-23T07:20:00.824Z,55.40
2022-10-23T07:21:00.832Z,55.11
2022-10-23T07:22:00.819Z,55.14
2022-10-23T07:23:00.775Z,57.04
2022-10-23T07:24:00.781Z,54.96
2022-10-23T07:25:00.746Z,55.27
2022-10-23T07:26:00.763Z,54.77
2022-10-23T07:27:00.957Z,54.36
2022-10-23T07:28:00.734Z,54.25
2022-10-23T07:29:00.836Z,53.56
2022-10-23T07:30:00.776Z,54.89
2022-10-23T07:31:00.792Z,55.84
2022-10-23T07:32:00.832Z,55.55
2022-10-23T07:33:00.755Z,54.38
2022-10-23T07:34:00.764Z,56.13
2022-10-23T07:35:00.713Z,54.48
2022-10-23T07:36:00.803Z,56.27
2022-10-23T07:37:00.813Z,54.41
2022-10-23T07:38:00.875Z,54.12
2022-10-23T07:39:00.644Z,56.66
2022-10-23T07:40:00.614Z,55.25
2022-10-23T07:41:00.766Z,55.89
2022-10-23T07:42:00.625Z,52.93
2022-10-23T07:43:00.655Z,55.60
2022-10-23T07:44:00.636Z,56.21
2022-10-23T07:45:00.615Z,56.93
2022-10-23T07:46:00.584Z,54.42
2022-10-23T07:47:00.656Z,53.71
2022-10-23T07:48:00.700Z,55.64
2022-10-23T07:49:00.658Z,55.88
2022-10-23T07:50:00.678Z,56.16
2022-10-23T07:51:00.635Z,56.02
2022-10-23T07:53:01.698Z,55.80
2022-10-23T07:54:00.606Z,55.68
2022-10-23T07:55:00.692Z,57.35
2022-10-23T07:56:00.618Z,55.80
2022-10-23T07:57:00.608Z,56.86
2022-10-23T07:58:00.637Z,59.15
2022-10-23T07:59:00.638Z,55.27
2022-10-23T08:00:00.493Z,55.32
2022-10-23T08:01:00.502Z,53.00
2022-10-23T08:02:00.588Z,54.63
2022-10-23T08:03:00.463Z,55.28
2022-10-23T08:04:01.125Z,53.88
2022-10-23T08:05:00.444Z,55.36
2022-10-23T08:06:00.428Z,55.28
2022-10-23T08:07:00.458Z,54.82
2022-10-23T08:08:00.540Z,55.56
2022-10-23T08:09:03.758Z,54.05
2022-10-23T08:10:01.469Z,53.62
2022-10-23T08:11:00.457Z,53.50
2022-10-23T08:12:00.502Z,55.09
2022-10-23T08:13:00.538Z,55.56
2022-10-23T08:14:00.492Z,53.22
2022-10-23T08:15:00.520Z,54.91
2022-10-23T08:16:00.469Z,55.18
2022-10-23T08:18:00.491Z,54.50
2022-10-23T08:19:00.402Z,55.10
2022-10-23T08:20:00.433Z,55.81
2022-10-23T08:21:00.763Z,55.00
2022-10-23T08:22:00.457Z,55.84
2022-10-23T08:23:00.360Z,55.70
2022-10-23T08:24:00.578Z,55.90
2022-10-23T08:25:00.388Z,55.86
2022-10-23T08:26:00.391Z,56.23
2022-10-23T08:27:00.621Z,56.33
2022-10-23T08:28:04.222Z,56.50
2022-10-23T08:29:02.345Z,54.83
2022-10-23T08:30:00.262Z,53.82
2022-10-23T08:31:00.382Z,54.21
2022-10-23T08:32:01.417Z,59.47
2022-10-23T08:33:00.343Z,57.21
2022-10-23T08:34:00.419Z,54.62
2022-10-23T08:35:00.461Z,55.06
2022-10-23T08:36:00.283Z,55.27
2022-10-23T08:37:00.447Z,56.88
2022-10-23T08:38:00.305Z,57.07
2022-10-23T08:39:00.654Z,55.17
2022-10-23T08:40:01.039Z,57.18
2022-10-23T08:41:00.447Z,57.21
2022-10-23T08:42:00.540Z,55.77
2022-10-23T08:43:00.343Z,54.88
2022-10-23T08:44:00.162Z,56.72
2022-10-23T08:45:00.340Z,56.92
2022-10-23T08:46:00.538Z,54.87
2022-10-23T08:47:00.261Z,56.28
2022-10-23T08:48:00.272Z,57.17
2022-10-23T08:49:00.267Z,57.58
2022-10-23T08:50:00.521Z,57.09
2022-10-23T08:51:00.203Z,55.35
2022-10-23T08:52:00.201Z,54.53
2022-10-23T08:53:00.246Z,57.36
2022-10-23T08:54:00.471Z,55.95
2022-10-23T08:55:01.073Z,56.02
2022-10-23T08:56:00.164Z,55.98
2022-10-23T08:57:00.172Z,56.58
2022-10-23T08:58:00.196Z,58.09
2022-10-23T08:59:00.124Z,56.19
2022-10-23T09:00:01.131Z,56.91
2022-10-23T09:01:00.292Z,61.32
2022-10-23T09:02:00.437Z,54.29
2022-10-23T09:03:00.137Z,56.54
2022-10-23T09:04:00.316Z,57.58
2022-10-23T09:05:00.165Z,56.84
2022-10-23T09:06:00.183Z,55.94
2022-10-23T09:07:00.099Z,56.48
2022-10-23T09:08:00.164Z,54.94
2022-10-23T09:09:00.212Z,57.13
2022-10-23T09:09:59.991Z,57.05
2022-10-23T09:11:12.772Z,55.11
2022-10-23T09:11:59.981Z,55.15
2022-10-23T09:13:00.565Z,55.15
2022-10-23T09:13:59.961Z,57.42
2022-10-23T09:15:00.004Z,56.82
2022-10-23T09:15:59.945Z,55.98
2022-10-23T09:17:00.204Z,57.01
2022-10-23T09:17:59.997Z,57.67
2022-10-23T09:19:00.100Z,58.06
2022-10-23T09:20:00.068Z,55.17
2022-10-23T09:20:59.948Z,56.07
2022-10-23T09:21:59.968Z,57.06
2022-10-23T09:23:00.588Z,57.38
2022-10-23T09:23:59.927Z,55.35
2022-10-23T09:24:59.947Z,55.94
2022-10-23T09:26:00.094Z,56.04
2022-10-23T09:26:59.942Z,53.77
2022-10-23T09:28:01.574Z,56.28
2022-10-23T09:29:00.922Z,56.69
2022-10-23T09:29:59.862Z,56.64
2022-10-23T09:31:00.021Z,56.66
2022-10-23T09:31:59.808Z,60.09
2022-10-23T09:33:03.350Z,58.58
2022-10-23T09:34:00.850Z,57.32
2022-10-23T09:34:59.792Z,56.93
2022-10-23T09:35:59.888Z,58.67
2022-10-23T09:36:59.924Z,57.22
2022-10-23T09:37:59.936Z,57.96
2022-10-23T09:38:59.869Z,58.18
2022-10-23T09:39:59.879Z,59.15
2022-10-23T09:40:59.906Z,56.39
2022-10-23T09:42:08.583Z,57.46
2022-10-23T09:42:59.926Z,57.50
2022-10-23T09:44:12.513Z,55.77
2022-10-23T09:44:59.820Z,56.63
2022-10-23T09:45:59.820Z,57.78
2022-10-23T09:46:59.981Z,57.61
2022-10-23T09:47:59.835Z,56.57
2022-10-23T09:49:02.136Z,58.01
2022-10-23T09:50:00.834Z,57.10
2022-10-23T09:50:59.738Z,57.16
2022-10-23T09:51:59.671Z,57.11
2022-10-23T09:52:59.900Z,59.17
2022-10-23T09:53:59.686Z,57.56
2022-10-23T09:54:59.865Z,56.41
2022-10-23T09:55:59.786Z,57.28
2022-10-23T09:56:59.720Z,57.50
2022-10-23T09:57:59.820Z,56.52
2022-10-23T09:58:59.624Z,56.48
2022-10-23T10:00:04.346Z,57.12
2022-10-23T10:01:01.059Z,56.87
2022-10-23T10:01:59.928Z,56.33
2022-10-23T10:02:59.718Z,53.67
2022-10-23T10:03:59.728Z,56.62
2022-10-23T10:04:59.708Z,56.46
2022-10-23T10:05:59.746Z,55.56
2022-10-23T10:06:59.794Z,56.13
2022-10-23T10:07:59.655Z,57.03
2022-10-23T10:08:59.692Z,55.60
2022-10-23T10:09:59.681Z,56.19
2022-10-23T10:10:59.825Z,58.64
2022-10-23T10:11:59.764Z,56.72
2022-10-23T10:12:59.683Z,58.32
2022-10-23T10:13:59.724Z,56.72
2022-10-23T10:15:00.184Z,56.15
2022-10-23T10:15:59.507Z,56.45
2022-10-23T10:16:59.528Z,57.41
2022-10-23T10:17:59.514Z,56.30
2022-10-23T10:18:59.587Z,56.18
2022-10-23T10:20:03.686Z,56.07
2022-10-23T10:21:00.487Z,56.99
2022-10-23T10:21:59.505Z,56.50
2022-10-23T10:22:59.570Z,57.37
2022-10-23T10:23:59.541Z,56.76
2022-10-23T10:24:59.604Z,57.41
2022-10-23T10:25:59.537Z,58.64
2022-10-23T10:26:59.524Z,57.38
2022-10-23T10:27:59.529Z,57.00
2022-10-23T10:29:00.097Z,57.30
2022-10-23T10:29:59.899Z,56.51
2022-10-23T10:30:59.530Z,55.04
2022-10-23T10:31:59.504Z,57.13
2022-10-23T10:32:59.536Z,56.29
2022-10-23T10:33:59.490Z,57.93
2022-10-23T10:34:59.554Z,57.20
2022-10-23T10:35:59.538Z,58.61
2022-10-23T10:36:59.489Z,55.76
2022-10-23T10:37:59.449Z,56.93
2022-10-23T10:38:59.543Z,56.62
2022-10-23T10:39:59.427Z,54.36
2022-10-23T10:40:59.671Z,57.18
2022-10-23T10:41:59.659Z,54.74
2022-10-23T10:42:59.513Z,54.62
2022-10-23T10:43:59.534Z,55.43
2022-10-23T10:44:59.757Z,55.63
2022-10-23T10:45:59.480Z,57.23
2022-10-23T10:46:59.364Z,57.87
2022-10-23T10:47:59.331Z,57.04
2022-10-23T10:48:59.394Z,56.33
2022-10-23T10:49:59.354Z,54.56
2022-10-23T10:50:59.861Z,56.10
2022-10-23T10:51:59.719Z,56.31
2022-10-23T10:52:59.641Z,57.17
2022-10-23T10:53:59.399Z,57.50
2022-10-23T10:54:59.341Z,55.75
2022-10-23T10:55:59.473Z,56.87
2022-10-23T10:56:59.335Z,56.43
2022-10-23T10:58:00.124Z,57.47
2022-10-23T10:58:59.372Z,57.35
2022-10-23T10:59:59.372Z,56.55
2022-10-23T11:00:59.429Z,54.79
2022-10-23T11:02:00.505Z,56.36
2022-10-23T11:02:59.320Z,55.71
2022-10-23T11:03:59.258Z,55.42
2022-10-23T11:04:59.289Z,57.27
2022-10-23T11:06:59.313Z,56.96
2022-10-23T11:07:59.250Z,56.39
2022-10-23T11:09:19.299Z,56.60
2022-10-23T11:10:01.143Z,56.03
2022-10-23T11:10:59.297Z,56.78
2022-10-23T11:11:59.430Z,56.57
2022-10-23T11:12:59.291Z,57.11
2022-10-23T11:13:59.718Z,56.72
2022-10-23T11:14:59.116Z,56.15
2022-10-23T11:15:59.265Z,56.42
2022-10-23T11:16:59.125Z,55.29
2022-10-23T11:17:59.156Z,56.90
2022-10-23T11:18:59.431Z,56.08
2022-10-23T11:19:59.105Z,57.10
2022-10-23T11:20:59.226Z,58.66
2022-10-23T11:21:59.112Z,57.60
2022-10-23T11:22:59.211Z,57.14
2022-10-23T11:23:59.196Z,57.41
2022-10-23T11:24:59.154Z,56.82
2022-10-23T11:25:59.131Z,56.41
2022-10-23T11:26:59.090Z,55.03
2022-10-23T11:28:02.828Z,55.00
2022-10-23T11:29:01.020Z,56.73
2022-10-23T11:29:59.120Z,55.62
2022-10-23T11:30:59.222Z,58.18
2022-10-23T11:31:59.042Z,55.06
2022-10-23T11:32:59.061Z,55.41
2022-10-23T11:33:59.044Z,55.50
2022-10-23T11:34:59.015Z,56.78
2022-10-23T11:35:59.113Z,56.87
2022-10-23T11:36:59.216Z,54.56
2022-10-23T11:37:59.219Z,56.80
2022-10-23T11:38:59.006Z,56.53
2022-10-23T11:39:58.898Z,56.99
2022-10-23T11:40:59.003Z,55.45
2022-10-23T11:41:58.934Z,52.83
2022-10-23T11:42:58.879Z,54.59
2022-10-23T11:43:58.980Z,57.20
2022-10-23T11:44:58.944Z,55.13
2022-10-23T11:45:59.046Z,54.44
2022-10-23T11:46:59.037Z,60.89
2022-10-23T11:47:58.955Z,56.53
2022-10-23T11:48:59.064Z,54.09
2022-10-23T11:49:59.197Z,55.67
2022-10-23T11:51:00.332Z,55.76
2022-10-23T11:51:58.974Z,55.25
2022-10-23T11:53:15.392Z,54.80
2022-10-23T11:54:00.824Z,54.78
2022-10-23T11:54:58.945Z,56.17
2022-10-23T11:55:59.068Z,56.21
2022-10-23T11:56:58.873Z,57.33
2022-10-23T11:57:58.993Z,56.36
2022-10-23T11:58:58.936Z,55.66
2022-10-23T11:59:59.499Z,56.19
2022-10-23T12:00:59.667Z,55.21
2022-10-23T12:01:59.131Z,57.05
2022-10-23T12:02:59.339Z,55.73
2022-10-23T12:03:58.787Z,55.64
2022-10-23T12:04:58.942Z,56.59
2022-10-23T12:05:58.729Z,57.52
2022-10-23T12:06:59.138Z,56.78
2022-10-23T12:07:58.712Z,57.65
2022-10-23T12:08:59.094Z,57.28
2022-10-23T12:09:58.673Z,57.59
2022-10-23T12:10:58.810Z,57.51
2022-10-23T12:11:58.765Z,57.18
2022-10-23T12:12:58.777Z,55.44
2022-10-23T12:13:58.800Z,58.02
2022-10-23T12:14:58.771Z,56.05
2022-10-23T12:16:00.920Z,55.76
2022-10-23T12:16:58.731Z,55.87
2022-10-23T12:17:58.713Z,57.29
2022-10-23T12:18:58.717Z,55.40
2022-10-23T12:19:58.720Z,56.84
2022-10-23T12:20:58.797Z,56.73
2022-10-23T12:21:58.738Z,57.49
2022-10-23T12:22:58.669Z,56.73
2022-10-23T12:23:58.703Z,56.76
2022-10-23T12:24:58.676Z,57.96
2022-10-23T12:25:58.792Z,57.12
2022-10-23T12:26:58.657Z,59.08
2022-10-23T12:27:58.756Z,55.11
2022-10-23T12:28:58.633Z,56.66
2022-10-23T12:29:58.547Z,57.05
2022-10-23T12:30:58.884Z,56.31
2022-10-23T12:31:58.529Z,55.75
2022-10-23T12:32:58.786Z,56.37
2022-10-23T12:33:58.591Z,56.33
2022-10-23T12:34:58.702Z,57.23
2022-10-23T12:35:58.581Z,55.83
2022-10-23T12:36:58.750Z,56.96
2022-10-23T12:37:58.632Z,54.90
2022-10-23T12:38:58.754Z,55.72
2022-10-23T12:39:58.609Z,55.88
2022-10-23T12:40:59.546Z,57.30
2022-10-23T12:41:58.578Z,55.00
2022-10-23T12:42:58.526Z,53.56
2022-10-23T12:43:58.578Z,53.95
2022-10-23T12:44:58.767Z,54.17
2022-10-23T12:45:58.498Z,55.27
2022-10-23T12:46:58.555Z,54.67
2022-10-23T12:47:58.596Z,53.15
2022-10-23T12:48:58.538Z,53.85
2022-10-23T12:49:58.498Z,53.11
2022-10-23T12:50:58.418Z,54.90
2022-10-23T12:51:58.548Z,52.77
2022-10-23T12:52:58.468Z,55.31
2022-10-23T12:53:58.368Z,56.24
2022-10-23T12:54:58.371Z,55.82
2022-10-23T12:56:58.374Z,55.46
2022-10-23T12:57:58.470Z,56.56